createdAt,value
2022-08-05T00:01:36.358Z,21.21
2022-08-05T00:04:16.446Z,21.16
2022-08-05T00:06:43.018Z,21.18
2022-08-05T00:09:12.795Z,21.12
2022-08-05T00:11:49.337Z,21.10
2022-08-05T00:14:22.603Z,21.12
2022-08-05T00:16:54.383Z,21.11
2022-08-05T00:19:25.113Z,21.11
2022-08-05T00:22:00.667Z,21.08
2022-08-05T00:24:31.168Z,21.08
2022-08-05T00:26:58.723Z,21.06
2022-08-05T00:29:25.963Z,21.05
2022-08-05T00:32:13.343Z,21.03
2022-08-05T00:35:06.116Z,21.00
2022-08-05T00:37:35.726Z,21.02
2022-08-05T00:40:17.803Z,21.04
2022-08-05T00:42:54.696Z,21.05
2022-08-05T00:45:28.101Z,20.97
2022-08-05T00:48:09.428Z,20.94
2022-08-05T00:50:36.724Z,20.93
2022-08-05T00:53:09.505Z,20.91
2022-08-05T00:55:51.066Z,20.80
2022-08-05T00:58:19.200Z,20.74
2022-08-05T01:00:46.762Z,20.74
2022-08-05T01:03:22.507Z,20.77
2022-08-05T01:05:54.349Z,20.75
2022-08-05T01:08:40.147Z,20.70
2022-08-05T01:11:13.844Z,20.67
2022-08-05T01:14:11.284Z,20.60
2022-08-05T01:16:49.442Z,20.59
2022-08-05T01:20:03.020Z,20.55
2022-08-05T01:22:39.693Z,20.52
2022-08-05T01:25:06.786Z,20.47
2022-08-05T01:28:02.517Z,20.44
2022-08-05T01:30:33.797Z,20.45
2022-08-05T01:33:06.278Z,20.45
2022-08-05T01:35:51.832Z,20.44
2022-08-05T01:38:26.777Z,20.36
2022-08-05T01:40:58.619Z,20.36
2022-08-05T01:43:27.797Z,20.33
2022-08-05T01:45:57.013Z,20.33
2022-08-05T01:48:26.975Z,20.33
2022-08-05T01:50:56.323Z,20.31
2022-08-05T01:53:55.088Z,20.30
2022-08-05T01:56:13.414Z,20.34
2022-08-05T01:59:02.494Z,20.33
2022-08-05T02:01:32.769Z,20.33
2022-08-05T02:04:07.779Z,20.31
2022-08-05T02:06:38.903Z,20.30
2022-08-05T02:09:06.663Z,20.29
2022-08-05T02:11:47.817Z,20.31
2022-08-05T02:14:24.739Z,20.30
2022-08-05T02:16:55.327Z,20.28
2022-08-05T02:19:27.758Z,20.25
2022-08-05T02:22:01.208Z,20.22
2022-08-05T02:24:32.618Z,20.19
2022-08-05T02:27:10.180Z,20.17
2022-08-05T02:29:59.452Z,20.16
2022-08-05T02:32:31.653Z,20.15
2022-08-05T02:35:13.791Z,20.09
2022-08-05T02:37:43.171Z,20.02
2022-08-05T02:40:17.159Z,20.00
2022-08-05T02:42:52.809Z,19.97
2022-08-05T02:45:21.435Z,19.97
2022-08-05T02:48:07.305Z,19.95
2022-08-05T02:50:43.811Z,19.91
2022-08-05T02:53:18.918Z,19.89
2022-08-05T02:55:52.108Z,19.88
2022-08-05T02:58:26.804Z,19.89
2022-08-05T03:00:56.547Z,19.85
2022-08-05T03:03:23.849Z,19.83
2022-08-05T03:06:54.482Z,19.81
2022-08-05T03:08:42.690Z,19.77
2022-08-05T03:11:55.693Z,19.76
2022-08-05T03:14:13.673Z,19.77
2022-08-05T03:16:40.951Z,19.75
2022-08-05T03:19:12.681Z,19.72
2022-08-05T03:21:48.655Z,19.72
2022-08-05T03:24:18.215Z,19.69
2022-08-05T03:26:56.366Z,19.64
2022-08-05T03:29:23.916Z,19.65
2022-08-05T03:31:56.626Z,19.64
2022-08-05T03:34:28.769Z,19.64
2022-08-05T03:36:55.448Z,19.61
2022-08-05T03:39:26.703Z,19.60
2022-08-05T03:41:54.018Z,19.60
2022-08-05T03:44:23.006Z,19.60
2022-08-05T03:46:49.681Z,19.57
2022-08-05T03:49:16.428Z,19.55
2022-08-05T03:52:50.256Z,19.50
2022-08-05T03:55:34.498Z,19.50
2022-08-05T03:57:45.529Z,19.50
2022-08-05T04:00:16.171Z,19.50
2022-08-05T04:02:58.294Z,19.46
2022-08-05T04:05:36.218Z,19.48
2022-08-05T04:08:14.855Z,19.46
2022-08-05T04:10:57.641Z,19.44
2022-08-05T04:13:25.353Z,19.38
2022-08-05T04:16:04.789Z,19.33
2022-08-05T04:18:32.317Z,19.34
2022-08-05T04:21:01.733Z,19.30
2022-08-05T04:24:05.806Z,19.31
2022-08-05T04:26:17.698Z,19.33
2022-08-05T04:28:47.118Z,19.30
2022-08-05T04:31:17.857Z,19.28
2022-08-05T04:34:17.954Z,19.30
2022-08-05T04:36:46.241Z,19.25
2022-08-05T04:39:16.579Z,19.24
2022-08-05T04:41:43.056Z,19.25
2022-08-05T04:44:12.084Z,19.24
2022-08-05T04:46:38.795Z,19.22
2022-08-05T04:49:12.299Z,19.23
2022-08-05T04:51:42.304Z,19.19
2022-08-05T04:54:10.115Z,19.23
2022-08-05T04:56:38.492Z,19.21
2022-08-05T04:59:24.315Z,19.20
2022-08-05T05:02:07.607Z,19.20
2022-08-05T05:04:44.111Z,19.21
2022-08-05T05:07:15.791Z,19.20
2022-08-05T05:09:42.566Z,19.20
2022-08-05T05:12:11.668Z,19.19
2022-08-05T05:14:38.412Z,19.20
2022-08-05T05:17:19.881Z,19.19
2022-08-05T05:19:50.224Z,19.20
2022-08-05T05:22:23.550Z,19.24
2022-08-05T05:24:57.391Z,19.28
2022-08-05T05:27:45.014Z,19.29
2022-08-05T05:30:15.342Z,19.30
2022-08-05T05:32:55.605Z,19.33
2022-08-05T05:35:23.040Z,19.34
2022-08-05T05:37:59.914Z,19.34
2022-08-05T05:40:29.418Z,19.28
2022-08-05T05:42:57.104Z,19.29
2022-08-05T05:45:24.767Z,19.29
2022-08-05T05:48:05.454Z,19.31
2022-08-05T05:50:35.627Z,19.38
2022-08-05T05:53:22.089Z,19.47
2022-08-05T05:55:52.219Z,19.52
2022-08-05T05:58:31.466Z,19.61
2022-08-05T06:01:02.391Z,19.63
2022-08-05T06:04:00.552Z,19.61
2022-08-05T06:06:31.374Z,19.64
2022-08-05T06:09:01.679Z,19.64
2022-08-05T06:11:30.330Z,19.70
2022-08-05T06:13:56.777Z,19.81
2022-08-05T06:16:30.696Z,20.00
2022-08-05T06:19:01.149Z,20.10
2022-08-05T06:21:36.018Z,20.11
2022-08-05T06:24:06.053Z,20.17
2022-08-05T06:26:35.972Z,20.20
2022-08-05T06:29:06.949Z,20.21
2022-08-05T06:31:49.744Z,20.22
2022-08-05T06:34:17.398Z,20.33
2022-08-05T06:36:57.238Z,20.47
2022-08-05T06:39:27.118Z,20.64
2022-08-05T06:41:56.371Z,20.66
2022-08-05T06:44:25.281Z,20.71
2022-08-05T06:46:52.848Z,20.71
2022-08-05T06:49:21.481Z,20.86
2022-08-05T06:52:07.761Z,20.92
2022-08-05T06:54:54.161Z,21.03
2022-08-05T06:58:02.784Z,21.06
2022-08-05T07:00:09.719Z,21.09
2022-08-05T07:02:46.324Z,21.18
2022-08-05T07:05:18.517Z,21.19
2022-08-05T07:07:48.877Z,21.25
2022-08-05T07:10:16.426Z,21.17
2022-08-05T07:13:02.808Z,20.91
2022-08-05T07:16:01.898Z,20.91
2022-08-05T07:18:31.919Z,20.99
2022-08-05T07:20:58.803Z,21.01
2022-08-05T07:23:31.869Z,21.07
2022-08-05T07:25:58.311Z,21.11
2022-08-05T07:28:25.294Z,20.93
2022-08-05T07:30:55.121Z,20.99
2022-08-05T07:33:36.878Z,21.14
2022-08-05T07:36:21.226Z,21.10
2022-08-05T07:38:49.069Z,21.19
2022-08-05T07:42:07.651Z,21.30
2022-08-05T07:44:14.282Z,21.30
2022-08-05T07:46:49.327Z,21.33
2022-08-05T07:49:18.239Z,21.38
2022-08-05T07:51:53.878Z,21.28
2022-08-05T07:54:30.866Z,21.32
2022-08-05T07:57:22.860Z,21.44
2022-08-05T07:59:50.442Z,21.56
2022-08-05T08:02:18.183Z,21.59
2022-08-05T08:04:49.591Z,21.61
2022-08-05T08:07:18.233Z,21.69
2022-08-05T08:09:49.597Z,21.83
2022-08-05T08:12:35.287Z,21.77
2022-08-05T08:15:15.725Z,21.81
2022-08-05T08:17:46.194Z,21.86
2022-08-05T08:20:43.477Z,22.02
2022-08-05T08:23:11.561Z,22.09
2022-08-05T08:25:59.017Z,22.16
2022-08-05T08:28:36.293Z,22.17
2022-08-05T08:31:07.727Z,22.18
2022-08-05T08:33:37.522Z,22.27
2022-08-05T08:36:38.670Z,22.27
2022-08-05T08:38:55.361Z,22.26
2022-08-05T08:41:26.068Z,22.14
2022-08-05T08:45:23.212Z,22.07
2022-08-05T08:46:57.843Z,22.10
2022-08-05T08:50:23.069Z,22.13
2022-08-05T08:52:16.801Z,22.00
2022-08-05T08:54:44.569Z,21.87
2022-08-05T08:57:13.434Z,21.82
2022-08-05T08:59:42.061Z,21.77
2022-08-05T09:02:14.595Z,21.75
2022-08-05T09:04:58.360Z,21.72
2022-08-05T09:07:39.492Z,22.02
2022-08-05T09:10:19.401Z,22.18
2022-08-05T09:12:53.085Z,22.22
2022-08-05T09:15:19.984Z,22.17
2022-08-05T09:17:49.690Z,22.27
2022-08-05T09:20:21.133Z,22.33
2022-08-05T09:23:19.674Z,22.47
2022-08-05T09:26:03.156Z,22.71
2022-08-05T09:28:33.400Z,22.77
2022-08-05T09:31:43.534Z,22.79
2022-08-05T09:33:59.041Z,22.74
2022-08-05T09:36:53.848Z,22.57
2022-08-05T09:39:23.481Z,22.38
2022-08-05T09:41:57.155Z,22.40
2022-08-05T09:44:39.272Z,22.51
2022-08-05T09:47:20.760Z,22.56
2022-08-05T09:50:00.991Z,22.71
2022-08-05T09:52:36.287Z,22.82
2022-08-05T09:55:56.675Z,22.92
2022-08-05T09:57:59.941Z,23.00
2022-08-05T10:00:27.603Z,22.90
2022-08-05T10:02:58.385Z,22.81
2022-08-05T10:05:28.047Z,22.82
2022-08-05T10:08:34.839Z,22.64
2022-08-05T10:10:54.230Z,22.68
2022-08-05T10:13:31.596Z,22.79
2022-08-05T10:16:33.964Z,22.84
2022-08-05T10:19:08.404Z,22.92
2022-08-05T10:21:40.382Z,22.91
2022-08-05T10:24:13.763Z,22.90
2022-08-05T10:26:51.844Z,23.03
2022-08-05T10:29:24.058Z,23.03
2022-08-05T10:32:51.521Z,23.06
2022-08-05T10:34:55.384Z,23.03
2022-08-05T10:37:22.442Z,23.14
2022-08-05T10:39:58.948Z,23.35
2022-08-05T10:42:47.498Z,23.51
2022-08-05T10:45:24.086Z,23.75
2022-08-05T10:48:56.426Z,23.93
2022-08-05T10:51:29.209Z,23.98
2022-08-05T10:54:01.091Z,24.21
2022-08-05T10:56:45.213Z,24.19
2022-08-05T11:00:02.128Z,24.16
2022-08-05T11:02:14.082Z,24.32
2022-08-05T11:04:46.428Z,24.24
2022-08-05T11:07:16.428Z,24.14
2022-08-05T11:09:46.328Z,23.92
2022-08-05T11:12:34.557Z,23.83
2022-08-05T11:15:20.252Z,23.88
2022-08-05T11:17:57.318Z,24.02
2022-08-05T11:20:44.210Z,23.93
2022-08-05T11:24:03.848Z,23.94
2022-08-05T11:26:28.731Z,23.97
2022-08-05T11:29:06.619Z,23.88
2022-08-05T11:31:57.073Z,23.71
2022-08-05T11:34:47.459Z,23.79
2022-08-05T11:38:36.739Z,23.99
2022-08-05T11:41:35.310Z,24.03
2022-08-05T11:44:05.543Z,23.90
2022-08-05T11:46:58.710Z,23.79
2022-08-05T11:49:34.562Z,23.69
2022-08-05T11:52:01.997Z,23.58
2022-08-05T11:54:40.526Z,23.65
2022-08-05T11:57:24.841Z,23.75
2022-08-05T11:59:52.267Z,23.66
2022-08-05T12:02:31.451Z,23.59
2022-08-05T12:05:00.173Z,23.62
2022-08-05T12:08:09.491Z,23.80
2022-08-05T12:10:23.072Z,23.78
2022-08-05T12:12:59.210Z,23.82
2022-08-05T12:15:35.953Z,24.05
2022-08-05T12:18:10.614Z,24.03
2022-08-05T12:20:38.706Z,24.00
2022-08-05T12:23:10.214Z,24.17
2022-08-05T12:25:53.802Z,24.03
2022-08-05T12:28:37.833Z,23.92
2022-08-05T12:31:05.618Z,23.91
2022-08-05T12:33:36.266Z,23.88
2022-08-05T12:36:07.960Z,23.94
2022-08-05T12:38:39.490Z,23.90
2022-08-05T12:41:14.210Z,23.83
2022-08-05T12:43:51.562Z,23.89
2022-08-05T12:46:29.390Z,23.91
2022-08-05T12:49:14.535Z,24.22
2022-08-05T12:52:12.603Z,24.13
2022-08-05T12:54:35.840Z,24.26
2022-08-05T12:57:09.497Z,24.31
2022-08-05T13:01:56.788Z,24.42
2022-08-05T13:02:40.080Z,24.34
2022-08-05T13:05:08.324Z,24.28
2022-08-05T13:07:59.241Z,24.40
2022-08-05T13:10:27.019Z,24.50
2022-08-05T13:12:57.490Z,24.60
2022-08-05T13:15:41.225Z,24.56
2022-08-05T13:18:08.428Z,24.59
2022-08-05T13:20:35.513Z,24.37
2022-08-05T13:23:07.581Z,24.23
2022-08-05T13:25:52.663Z,24.42
2022-08-05T13:28:21.882Z,24.72
2022-08-05T13:30:48.833Z,24.92
2022-08-05T13:34:22.810Z,25.05
2022-08-05T13:36:05.308Z,25.19
2022-08-05T13:38:38.178Z,25.09
2022-08-05T13:41:09.613Z,25.07
2022-08-05T13:43:44.330Z,25.13
2022-08-05T13:46:12.973Z,24.93
2022-08-05T13:48:57.792Z,24.85
2022-08-05T13:51:29.178Z,24.68
2022-08-05T13:53:56.447Z,24.58
2022-08-05T13:56:25.449Z,24.63
2022-08-05T13:58:53.409Z,24.57
2022-08-05T14:01:23.666Z,24.50
2022-08-05T14:04:12.662Z,24.39
2022-08-05T14:06:39.205Z,24.24
2022-08-05T14:09:14.296Z,24.11
2022-08-05T14:12:04.352Z,24.26
2022-08-05T14:14:33.568Z,24.48
2022-08-05T14:17:00.567Z,24.56
2022-08-05T14:19:27.345Z,24.50
2022-08-05T14:22:11.534Z,24.54
2022-08-05T14:24:39.868Z,24.55
2022-08-05T14:27:17.484Z,24.40
2022-08-05T14:29:44.976Z,24.18
2022-08-05T14:32:26.673Z,24.07
2022-08-05T14:34:54.119Z,23.89
2022-08-05T14:37:23.789Z,23.82
2022-08-05T14:40:10.738Z,23.80
2022-08-05T14:42:41.382Z,23.78
2022-08-05T14:45:10.043Z,23.83
2022-08-05T14:48:05.750Z,23.75
2022-08-05T14:50:23.270Z,23.76
2022-08-05T14:52:58.472Z,23.59
2022-08-05T14:55:38.465Z,23.51
2022-08-05T14:58:10.976Z,23.36
2022-08-05T15:00:57.948Z,23.36
2022-08-05T15:03:33.526Z,23.27
2022-08-05T15:06:08.209Z,23.27
2022-08-05T15:08:59.886Z,23.37
2022-08-05T15:11:50.829Z,23.32
2022-08-05T15:14:33.191Z,23.41
2022-08-05T15:17:00.813Z,23.34
2022-08-05T15:19:27.402Z,23.25
2022-08-05T15:21:54.416Z,23.24
2022-08-05T15:24:26.762Z,23.37
2022-08-05T15:26:53.255Z,23.35
2022-08-05T15:29:22.380Z,23.22
2022-08-05T15:31:53.023Z,23.03
2022-08-05T15:34:32.052Z,22.94
2022-08-05T15:37:03.542Z,23.07
2022-08-05T15:41:01.274Z,23.09
2022-08-05T15:42:49.943Z,22.91
2022-08-05T15:45:06.303Z,22.88
2022-08-05T15:47:32.991Z,22.71
2022-08-05T15:50:06.039Z,22.63
2022-08-05T15:52:53.621Z,22.57
2022-08-05T15:55:24.650Z,22.61
2022-08-05T15:57:52.099Z,22.67
2022-08-05T16:00:26.342Z,22.69
2022-08-05T16:03:07.027Z,22.92
2022-08-05T16:05:33.691Z,22.90
2022-08-05T16:08:00.686Z,22.86
2022-08-05T16:10:27.690Z,22.78
2022-08-05T16:12:56.154Z,22.96
2022-08-05T16:15:23.230Z,22.96
2022-08-05T16:17:57.680Z,22.83
2022-08-05T16:20:25.383Z,22.83
2022-08-05T16:22:51.847Z,22.84
2022-08-05T16:25:18.666Z,22.90
2022-08-05T16:27:47.433Z,23.10
2022-08-05T16:30:32.194Z,23.39
2022-08-05T16:32:59.746Z,23.14
2022-08-05T16:35:33.788Z,22.78
2022-08-05T16:38:18.752Z,22.79
2022-08-05T16:41:00.068Z,23.15
2022-08-05T16:43:31.198Z,23.40
2022-08-05T16:46:06.811Z,23.69
2022-08-05T16:48:37.710Z,24.00
2022-08-05T16:51:10.141Z,24.24
2022-08-05T16:54:04.927Z,24.17
2022-08-05T16:56:29.853Z,23.65
2022-08-05T16:58:57.255Z,23.58
2022-08-05T17:01:24.295Z,23.45
2022-08-05T17:03:51.762Z,23.59
2022-08-05T17:06:18.319Z,23.85
2022-08-05T17:08:53.388Z,23.42
2022-08-05T17:11:25.468Z,22.84
2022-08-05T17:14:05.262Z,22.56
2022-08-05T17:16:36.213Z,22.63
2022-08-05T17:19:07.294Z,22.83
2022-08-05T17:21:36.906Z,23.24
2022-08-05T17:24:28.315Z,23.12
2022-08-05T17:26:56.554Z,23.58
2022-08-05T17:29:33.083Z,23.73
2022-08-05T17:32:06.777Z,23.98
2022-08-05T17:34:35.133Z,24.07
2022-08-05T17:37:01.982Z,24.26
2022-08-05T17:39:34.012Z,24.15
2022-08-05T17:42:19.228Z,23.40
2022-08-05T17:44:51.360Z,23.34
2022-08-05T17:47:22.546Z,23.52
2022-08-05T17:50:03.993Z,23.73
2022-08-05T17:52:34.811Z,23.88
2022-08-05T17:55:20.932Z,23.64
2022-08-05T17:57:50.053Z,23.01
2022-08-05T18:00:17.279Z,22.42
2022-08-05T18:02:46.808Z,22.14
2022-08-05T18:05:16.636Z,21.98
2022-08-05T18:07:44.594Z,21.87
2022-08-05T18:10:14.190Z,21.83
2022-08-05T18:12:47.756Z,21.70
2022-08-05T18:15:14.247Z,21.48
2022-08-05T18:18:01.597Z,21.37
2022-08-05T18:20:29.570Z,21.33
2022-08-05T18:23:11.883Z,21.22
2022-08-05T18:25:45.572Z,21.03
2022-08-05T18:28:16.297Z,20.98
2022-08-05T18:30:52.604Z,20.78
2022-08-05T18:33:22.794Z,20.65
2022-08-05T18:36:04.209Z,20.55
2022-08-05T18:38:36.375Z,20.40
2022-08-05T18:41:56.093Z,20.34
2022-08-05T18:43:51.043Z,20.27
2022-08-05T18:46:19.795Z,20.18
2022-08-05T18:48:51.805Z,20.00
2022-08-05T18:52:06.555Z,19.93
2022-08-05T18:54:26.074Z,19.92
2022-08-05T18:56:54.067Z,19.89
2022-08-05T18:59:43.994Z,19.88
2022-08-05T19:02:26.706Z,19.77
2022-08-05T19:05:01.761Z,19.69
2022-08-05T19:07:46.411Z,19.63
2022-08-05T19:10:14.210Z,19.61
2022-08-05T19:12:40.733Z,19.55
2022-08-05T19:15:10.712Z,19.48
2022-08-05T19:18:10.522Z,19.39
2022-08-05T19:20:46.784Z,19.37
2022-08-05T19:24:05.806Z,19.28
2022-08-05T19:26:02.759Z,19.22
2022-08-05T19:28:32.837Z,19.19
2022-08-05T19:31:00.936Z,19.10
2022-08-05T19:33:35.491Z,18.99
2022-08-05T19:36:06.898Z,18.93
2022-08-05T19:38:35.670Z,18.89
2022-08-05T19:41:07.022Z,18.78
2022-08-05T19:44:06.164Z,18.74
2022-08-05T19:46:30.213Z,18.73
2022-08-05T19:49:01.099Z,18.66
2022-08-05T19:51:59.850Z,18.61
2022-08-05T19:54:26.620Z,18.56
2022-08-05T19:56:58.246Z,18.57
2022-08-05T19:59:54.586Z,18.52
2022-08-05T20:02:12.718Z,18.42
2022-08-05T20:04:43.218Z,18.34
2022-08-05T20:07:13.703Z,18.33
2022-08-05T20:09:53.945Z,18.27
2022-08-05T20:12:23.326Z,18.25
2022-08-05T20:14:52.272Z,18.18
2022-08-05T20:17:19.265Z,18.18
2022-08-05T20:19:49.861Z,18.16
2022-08-05T20:22:16.280Z,18.11
2022-08-05T20:24:43.324Z,18.04
2022-08-05T20:27:11.641Z,18.05
2022-08-05T20:29:38.248Z,18.04
2022-08-05T20:32:06.554Z,18.03
2022-08-05T20:34:33.093Z,18.01
2022-08-05T20:37:00.795Z,17.95
2022-08-05T20:39:35.615Z,17.89
2022-08-05T20:42:04.538Z,17.85
2022-08-05T20:44:33.101Z,17.80
2022-08-05T20:47:07.410Z,17.76
2022-08-05T20:49:39.291Z,17.70
2022-08-05T20:52:07.099Z,17.60
2022-08-05T20:54:43.288Z,17.56
2022-08-05T20:57:24.716Z,17.55
2022-08-05T21:00:21.225Z,17.58
2022-08-05T21:03:00.180Z,17.51
2022-08-05T21:05:37.933Z,17.47
2022-08-05T21:08:14.976Z,17.44
2022-08-05T21:10:48.577Z,17.39
2022-08-05T21:13:26.610Z,17.35
2022-08-05T21:16:02.393Z,17.29
2022-08-05T21:18:30.266Z,17.24
2022-08-05T21:20:57.188Z,17.19
2022-08-05T21:23:24.114Z,17.13
2022-08-05T21:25:50.615Z,17.10
2022-08-05T21:28:18.655Z,17.05
2022-08-05T21:30:50.347Z,16.99
2022-08-05T21:33:22.556Z,16.95
2022-08-05T21:35:58.672Z,16.90
2022-08-05T21:38:27.665Z,16.85
2022-08-05T21:40:54.268Z,16.81
2022-08-05T21:43:23.982Z,16.74
2022-08-05T21:45:57.470Z,16.67
2022-08-05T21:48:27.745Z,16.62
2022-08-05T21:50:54.877Z,16.59
2022-08-05T21:53:21.687Z,16.54
2022-08-05T21:56:05.016Z,16.49
2022-08-05T21:58:42.165Z,16.45
2022-08-05T22:01:24.166Z,16.34
2022-08-05T22:03:53.036Z,16.33
2022-08-05T22:06:22.796Z,16.27
2022-08-05T22:09:01.706Z,16.25
2022-08-05T22:11:40.352Z,16.20
2022-08-05T22:14:34.696Z,16.18
2022-08-05T22:16:57.928Z,16.12
2022-08-05T22:20:03.179Z,16.06
2022-08-05T22:22:14.544Z,16.01
2022-08-05T22:24:59.734Z,15.95
2022-08-05T22:28:09.870Z,15.90
2022-08-05T22:30:35.028Z,15.85
2022-08-05T22:33:02.276Z,15.78
2022-08-05T22:35:31.080Z,15.74
2022-08-05T22:38:14.776Z,15.71
2022-08-05T22:40:41.742Z,15.68
2022-08-05T22:43:16.117Z,15.64
2022-08-05T22:46:07.208Z,15.60
2022-08-05T22:48:38.419Z,15.56
2022-08-05T22:51:07.060Z,15.51
2022-08-05T22:53:35.896Z,15.46
2022-08-05T22:56:03.201Z,15.41
2022-08-05T22:58:29.623Z,15.38
2022-08-05T23:00:59.315Z,15.35
2022-08-05T23:03:57.345Z,15.29
2022-08-05T23:06:12.399Z,15.25
2022-08-05T23:08:38.821Z,15.21
2022-08-05T23:11:05.848Z,15.16
2022-08-05T23:13:35.206Z,15.16
2022-08-05T23:16:03.728Z,15.12
2022-08-05T23:18:30.261Z,15.07
2022-08-05T23:20:58.904Z,15.03
2022-08-05T23:23:25.868Z,15.00
2022-08-05T23:25:56.510Z,14.93
2022-08-05T23:28:28.841Z,14.88
2022-08-05T23:30:56.300Z,14.84
2022-08-05T23:34:03.111Z,14.81
2022-08-05T23:36:28.450Z,14.78
2022-08-05T23:39:05.529Z,14.75
2022-08-05T23:41:34.177Z,14.73
2022-08-05T23:44:06.403Z,14.68
2022-08-05T23:46:35.164Z,14.64
2022-08-05T23:49:17.064Z,14.57
2022-08-05T23:52:07.543Z,14.54
2022-08-05T23:54:38.496Z,14.50
2022-08-05T23:57:06.246Z,14.45
